Terminal Aerodrome Forecast
Issued by NWS

Home | Current Version | Previous Version | Text Only | Print | Product List | Glossary On
Versions: 1 2 3 4 5 6 7 8 9 10 11 12 13 14 15 16 17 18 19 20 21 22 23 24 25 26 27 28 29 30 31 32 33 34 35
000
FTUS44 KLIX 240520
TAFHDC
TAF
KHDC 240520Z 2406/2506 00000KT P6SM BKN150
      TEMPO 2406/2410 4SM SHRA BR BKN020
     FM241000 28007KT P6SM VCSH BKN030
     FM241400 30011G21KT P6SM BKN035
     FM241600 29015G26KT P6SM SCT050
     FM242300 28009KT P6SM SCT100=

USA.gov is the U.S. government's official web portal to all federal, state and local government web resources and services.